Private Wetterstation Sandau
Wetterdaten: Freitag, 23.03.2012
Datum Zeit Temp. A. Feuchte A. Luftdruck Regen Wind Richtung Richtung Taupunkt Windchill
23.03.2012 00:02 8,3 C 79 % 1031,6 hPa 0,0 l/m 0,0 km/h (0 Bft) SW 225 4,9 C 8,3 C
23.03.2012 00:07 8,3 C 79 % 1031,5 hPa 0,0 l/m 0,0 km/h (0 Bft) SW 225 4,9 C 8,3 C
23.03.2012 00:12 8,3 C 79 % 1031,5 hPa 0,0 l/m 0,0 km/h (0 Bft) SW 225 4,9 C 8,3 C
23.03.2012 00:17 8,3 C 79 % 1031,6 hPa 0,0 l/m 0,0 km/h (0 Bft) SW 225 4,9 C 8,3 C
23.03.2012 00:22 8,2 C 79 % 1031,4 hPa 0,0 l/m 0,0 km/h (0 Bft) SW 225 4,8 C 8,2 C
23.03.2012 00:27 8,1 C 79 % 1031,5 hPa 0,0 l/m 0,0 km/h (0 Bft) SW 225 4,7 C 8,1 C
23.03.2012 00:32 7,9 C 80 % 1031,4 hPa 0,0 l/m 0,0 km/h (0 Bft) SW 225 4,7 C 7,9 C
23.03.2012 00:37 7,9 C 80 % 1031,4 hPa 0,0 l/m 0,0 km/h (0 Bft) SW 225 4,7 C 7,9 C
23.03.2012 00:42 7,9 C 80 % 1031,4 hPa 0,0 l/m 0,0 km/h (0 Bft) SW 225 4,7 C 7,9 C
23.03.2012 00:47 7,9 C 80 % 1031,4 hPa 0,0 l/m 0,0 km/h (0 Bft) SW 225 4,7 C 7,9 C
23.03.2012 00:52 7,9 C 80 % 1031,2 hPa 0,0 l/m 0,0 km/h (0 Bft) SW 225 4,7 C 7,9 C
23.03.2012 00:57 7,9 C 80 % 1031,1 hPa 0,0 l/m 0,0 km/h (0 Bft) SW 225 4,7 C 7,9 C
23.03.2012 01:02 7,9 C 80 % 1031,2 hPa 0,0 l/m 0,0 km/h (0 Bft) SW 225 4,7 C 7,9 C
23.03.2012 01:07 7,9 C 80 % 1031,2 hPa 0,0 l/m 0,0 km/h (0 Bft) SW 225 4,7 C 7,9 C
23.03.2012 01:12 7,9 C 80 % 1031,2 hPa 0,0 l/m 0,0 km/h (0 Bft) SW 225 4,7 C 7,9 C
23.03.2012 01:17 7,8 C 80 % 1031,1 hPa 0,0 l/m 0,0 km/h (0 Bft) SW 225 4,6 C 7,8 C
23.03.2012 01:22 7,8 C 80 % 1031,2 hPa 0,0 l/m 0,0 km/h (0 Bft) SW 225 4,6 C 7,8 C
23.03.2012 01:27 7,8 C 80 % 1031,0 hPa 0,0 l/m 0,0 km/h (0 Bft) SW 225 4,6 C 7,8 C
23.03.2012 01:32 7,7 C 80 % 1030,9 hPa 0,0 l/m 0,0 km/h (0 Bft) SW 225 4,5 C 7,7 C
23.03.2012 01:37 7,6 C 81 % 1031,0 hPa 0,0 l/m 0,0 km/h (0 Bft) SW 225 4,6 C 7,6 C
23.03.2012 01:42 7,6 C 81 % 1030,9 hPa 0,0 l/m 1,1 km/h (1 Bft) S-SW 202 4,6 C 7,6 C
23.03.2012 01:47 7,6 C 81 % 1031,0 hPa 0,0 l/m 0,0 km/h (0 Bft) S 180 4,6 C 7,6 C
23.03.2012 01:52 7,5 C 81 % 1031,0 hPa 0,0 l/m 0,0 km/h (0 Bft) S-SW 202 4,5 C 7,5 C
23.03.2012 01:57 7,4 C 81 % 1030,9 hPa 0,0 l/m 0,0 km/h (0 Bft) S-SW 202 4,4 C 7,4 C
23.03.2012 02:02 7,3 C 81 % 1030,8 hPa 0,0 l/m 0,0 km/h (0 Bft) S-SW 202 4,3 C 7,3 C
23.03.2012 02:07 7,2 C 81 % 1030,8 hPa 0,0 l/m 0,0 km/h (0 Bft) S-SW 202 4,2 C 7,2 C
23.03.2012 02:12 7,2 C 81 % 1030,9 hPa 0,0 l/m 0,0 km/h (0 Bft) S-SW 202 4,2 C 7,2 C
23.03.2012 02:17 7,2 C 81 % 1030,9 hPa 0,0 l/m 1,1 km/h (1 Bft) SW 225 4,2 C 7,2 C
23.03.2012 02:22 7,1 C 81 % 1030,6 hPa 0,0 l/m 0,0 km/h (0 Bft) W 270 4,1 C 7,1 C
23.03.2012 02:27 7,1 C 82 % 1030,6 hPa 0,0 l/m 0,0 km/h (0 Bft) W 270 4,2 C 7,1 C
23.03.2012 02:32 7,0 C 82 % 1030,7 hPa 0,0 l/m 1,4 km/h (1 Bft) W-NW 292 4,1 C 7,0 C
23.03.2012 02:37 7,0 C 82 % 1030,7 hPa 0,0 l/m 0,0 km/h (0 Bft) W-NW 292 4,1 C 7,0 C
23.03.2012 02:42 6,9 C 82 % 1030,7 hPa 0,0 l/m 0,0 km/h (0 Bft) W-NW 292 4,0 C 6,9 C
23.03.2012 02:47 6,9 C 82 % 1030,7 hPa 0,0 l/m 0,0 km/h (0 Bft) W-NW 292 4,0 C 6,9 C
23.03.2012 02:52 6,9 C 82 % 1030,6 hPa 0,0 l/m 0,0 km/h (0 Bft) W-NW 292 4,0 C 6,9 C
23.03.2012 02:57 6,9 C 82 % 1030,5 hPa 0,0 l/m 0,0 km/h (0 Bft) W-NW 292 4,0 C 6,9 C
23.03.2012 03:02 6,8 C 82 % 1030,5 hPa 0,0 l/m 0,0 km/h (0 Bft) W-NW 292 3,9 C 6,8 C
23.03.2012 03:07 6,8 C 83 % 1030,5 hPa 0,0 l/m 0,0 km/h (0 Bft) W-NW 292 4,1 C 6,8 C
23.03.2012 03:12 6,8 C 83 % 1030,5 hPa 0,0 l/m 1,1 km/h (1 Bft) W-NW 292 4,1 C 6,8 C
23.03.2012 03:17 6,6 C 83 % 1030,5 hPa 0,0 l/m 0,0 km/h (0 Bft) W-NW 292 3,9 C 6,6 C
23.03.2012 03:22 6,6 C 83 % 1030,3 hPa 0,0 l/m 0,0 km/h (0 Bft) W-NW 292 3,9 C 6,6 C
23.03.2012 03:27 6,5 C 83 % 1030,2 hPa 0,0 l/m 0,0 km/h (0 Bft) W-NW 292 3,8 C 6,5 C
23.03.2012 03:32 6,5 C 84 % 1030,1 hPa 0,0 l/m 0,0 km/h (0 Bft) W-NW 292 4,0 C 6,5 C
23.03.2012 03:37 6,4 C 84 % 1030,1 hPa 0,0 l/m 0,0 km/h (0 Bft) W-NW 292 3,9 C 6,4 C
23.03.2012 03:42 6,4 C 84 % 1030,2 hPa 0,0 l/m 0,0 km/h (0 Bft) W-NW 292 3,9 C 6,4 C
23.03.2012 03:47 6,4 C 84 % 1030,2 hPa 0,0 l/m 0,0 km/h (0 Bft) W-NW 292 3,9 C 6,4 C
23.03.2012 03:52 6,5 C 84 % 1030,2 hPa 0,0 l/m 0,0 km/h (0 Bft) W-NW 292 4,0 C 6,5 C
23.03.2012 03:57 6,5 C 84 % 1030,2 hPa 0,0 l/m 0,0 km/h (0 Bft) W-NW 292 4,0 C 6,5 C
23.03.2012 04:02 6,6 C 84 % 1030,2 hPa 0,0 l/m 0,0 km/h (0 Bft) W 270 4,1 C 6,6 C
23.03.2012 04:07 6,6 C 84 % 1030,2 hPa 0,0 l/m 0,0 km/h (0 Bft) W 270 4,1 C 6,6 C
23.03.2012 04:12 6,6 C 84 % 1030,2 hPa 0,0 l/m 0,0 km/h (0 Bft) W 270 4,1 C 6,6 C
23.03.2012 04:17 6,6 C 84 % 1030,2 hPa 0,0 l/m 0,0 km/h (0 Bft) W 270 4,1 C 6,6 C
23.03.2012 04:22 6,6 C 84 % 1030,2 hPa 0,0 l/m 0,0 km/h (0 Bft) W 270 4,1 C 6,6 C
23.03.2012 04:27 6,6 C 84 % 1030,2 hPa 0,0 l/m 0,0 km/h (0 Bft) W 270 4,1 C 6,6 C
23.03.2012 04:32 6,5 C 84 % 1030,2 hPa 0,0 l/m 0,0 km/h (0 Bft) W 270 4,0 C 6,5 C
23.03.2012 04:37 6,5 C 84 % 1030,2 hPa 0,0 l/m 0,0 km/h (0 Bft) W 270 4,0 C 6,5 C
23.03.2012 04:42 6,4 C 84 % 1030,2 hPa 0,0 l/m 0,0 km/h (0 Bft) W 270 3,9 C 6,4 C
23.03.2012 04:47 6,4 C 84 % 1030,1 hPa 0,0 l/m 0,0 km/h (0 Bft) W 270 3,9 C 6,4 C
23.03.2012 04:52 6,4 C 84 % 1030,1 hPa 0,0 l/m 0,0 km/h (0 Bft) W 270 3,9 C 6,4 C
23.03.2012 04:57 6,4 C 83 % 1030,1 hPa 0,0 l/m 0,0 km/h (0 Bft) W 270 3,7 C 6,4 C
23.03.2012 05:02 6,3 C 83 % 1030,0 hPa 0,0 l/m 0,0 km/h (0 Bft) W 270 3,6 C 6,3 C
23.03.2012 05:07 6,3 C 83 % 1030,1 hPa 0,0 l/m 1,1 km/h (1 Bft) W-SW 247 3,6 C 6,3 C
23.03.2012 05:12 6,2 C 83 % 1030,0 hPa 0,0 l/m 0,0 km/h (0 Bft) W-SW 247 3,5 C 6,2 C
23.03.2012 05:17 6,1 C 83 % 1029,9 hPa 0,0 l/m 0,0 km/h (0 Bft) W-SW 247 3,4 C 6,1 C
23.03.2012 05:22 6,1 C 84 % 1029,9 hPa 0,0 l/m 0,0 km/h (0 Bft) W-SW 247 3,6 C 6,1 C
23.03.2012 05:27 5,9 C 84 % 1030,2 hPa 0,0 l/m 0,0 km/h (0 Bft) SW 225 3,4 C 5,9 C
23.03.2012 05:32 5,9 C 84 % 1030,1 hPa 0,0 l/m 0,0 km/h (0 Bft) SW 225 3,4 C 5,9 C
23.03.2012 05:37 5,8 C 84 % 1030,1 hPa 0,0 l/m 0,0 km/h (0 Bft) SW 225 3,3 C 5,8 C
23.03.2012 05:42 5,8 C 84 % 1030,0 hPa 0,0 l/m 1,8 km/h (1 Bft) SW 225 3,3 C 5,8 C
23.03.2012 05:47 5,8 C 84 % 1030,0 hPa 0,0 l/m 0,0 km/h (0 Bft) SW 225 3,3 C 5,8 C
23.03.2012 05:52 5,8 C 84 % 1030,1 hPa 0,0 l/m 1,8 km/h (1 Bft) SW 225 3,3 C 5,8 C
23.03.2012 05:57 5,8 C 84 % 1030,1 hPa 0,0 l/m 0,0 km/h (0 Bft) SW 225 3,3 C 5,8 C
23.03.2012 06:02 5,6 C 84 % 1030,1 hPa 0,0 l/m 0,0 km/h (0 Bft) SW 225 3,1 C 5,6 C
23.03.2012 06:07 5,5 C 84 % 1030,0 hPa 0,0 l/m 0,0 km/h (0 Bft) SW 225 3,0 C 5,5 C
23.03.2012 06:12 5,4 C 84 % 1030,0 hPa 0,0 l/m 0,0 km/h (0 Bft) SW 225 2,9 C 5,4 C
23.03.2012 06:17 5,3 C 83 % 1030,1 hPa 0,0 l/m 0,0 km/h (0 Bft) SW 225 2,7 C 5,3 C
23.03.2012 06:22 5,3 C 84 % 1030,0 hPa 0,0 l/m 0,0 km/h (0 Bft) SW 225 2,8 C 5,3 C
23.03.2012 06:27 5,3 C 84 % 1030,0 hPa 0,0 l/m 0,0 km/h (0 Bft) W 270 2,8 C 5,3 C
23.03.2012 06:32 5,4 C 84 % 1030,1 hPa 0,0 l/m 0,0 km/h (0 Bft) W 270 2,9 C 5,4 C
23.03.2012 06:37 5,5 C 84 % 1030,2 hPa 0,0 l/m 0,0 km/h (0 Bft) W 270 3,0 C 5,5 C
23.03.2012 06:42 5,6 C 84 % 1030,1 hPa 0,0 l/m 0,0 km/h (0 Bft) W 270 3,1 C 5,6 C
23.03.2012 06:47 5,5 C 84 % 1030,1 hPa 0,0 l/m 0,0 km/h (0 Bft) W-NW 292 3,0 C 5,5 C
23.03.2012 06:52 5,5 C 84 % 1030,1 hPa 0,0 l/m 0,0 km/h (0 Bft) W-NW 292 3,0 C 5,5 C
23.03.2012 06:57 5,5 C 85 % 1030,2 hPa 0,0 l/m 0,0 km/h (0 Bft) W-NW 292 3,2 C 5,5 C
23.03.2012 07:02 5,5 C 85 % 1030,0 hPa 0,0 l/m 0,0 km/h (0 Bft) W-NW 292 3,2 C 5,5 C
23.03.2012 07:07 5,6 C 85 % 1030,1 hPa 0,0 l/m 0,0 km/h (0 Bft) W-NW 292 3,3 C 5,6 C
23.03.2012 07:12 5,6 C 85 % 1030,0 hPa 0,0 l/m 0,0 km/h (0 Bft) W-NW 292 3,3 C 5,6 C
23.03.2012 07:17 5,8 C 86 % 1030,1 hPa 0,0 l/m 0,0 km/h (0 Bft) W 270 3,6 C 5,8 C
23.03.2012 07:22 5,9 C 86 % 1030,1 hPa 0,0 l/m 0,0 km/h (0 Bft) W-NW 292 3,7 C 5,9 C
23.03.2012 07:27 6,1 C 86 % 1030,2 hPa 0,0 l/m 0,0 km/h (0 Bft) W 270 3,9 C 6,1 C
23.03.2012 07:32 6,3 C 86 % 1030,1 hPa 0,0 l/m 0,0 km/h (0 Bft) W 270 4,1 C 6,3 C
23.03.2012 07:37 6,4 C 86 % 1030,1 hPa 0,0 l/m 2,5 km/h (1 Bft) W 270 4,2 C 6,4 C
23.03.2012 07:42 6,6 C 86 % 1030,0 hPa 0,0 l/m 2,2 km/h (1 Bft) W 270 4,4 C 6,6 C
23.03.2012 07:47 6,7 C 86 % 1030,2 hPa 0,0 l/m 2,9 km/h (1 Bft) W 270 4,5 C 6,7 C
23.03.2012 07:52 6,8 C 86 % 1030,1 hPa 0,0 l/m 2,5 km/h (1 Bft) W 270 4,6 C 6,8 C
23.03.2012 07:57 6,9 C 86 % 1030,2 hPa 0,0 l/m 2,5 km/h (1 Bft) W-NW 292 4,7 C 6,9 C
23.03.2012 08:02 7,1 C 86 % 1030,2 hPa 0,0 l/m 2,9 km/h (1 Bft) W-NW 292 4,9 C 7,1 C
23.03.2012 08:07 7,2 C 86 % 1030,3 hPa 0,0 l/m 0,0 km/h (0 Bft) W-NW 292 5,0 C 7,2 C
23.03.2012 08:12 7,3 C 86 % 1030,1 hPa 0,0 l/m 0,0 km/h (0 Bft) N-NW 337 5,1 C 7,3 C
23.03.2012 08:17 7,5 C 86 % 1030,2 hPa 0,0 l/m 3,2 km/h (1 Bft) W 270 5,3 C 7,5 C
23.03.2012 08:22 7,6 C 86 % 1030,2 hPa 0,0 l/m 2,2 km/h (1 Bft) W-NW 292 5,4 C 7,6 C
23.03.2012 08:27 7,8 C 86 % 1030,3 hPa 0,0 l/m 3,2 km/h (1 Bft) W-NW 292 5,6 C 7,8 C
23.03.2012 08:32 7,9 C 86 % 1030,2 hPa 0,0 l/m 3,2 km/h (1 Bft) W-NW 292 5,7 C 7,9 C
23.03.2012 08:37 8,2 C 86 % 1030,2 hPa 0,0 l/m 1,8 km/h (1 Bft) W 270 6,0 C 8,2 C
23.03.2012 08:42 8,4 C 85 % 1030,1 hPa 0,0 l/m 2,5 km/h (1 Bft) W-NW 292 6,0 C 8,4 C
23.03.2012 08:47 8,5 C 85 % 1030,2 hPa 0,0 l/m 2,5 km/h (1 Bft) NW 315 6,1 C 8,5 C
23.03.2012 08:52 8,8 C 85 % 1030,2 hPa 0,0 l/m 0,0 km/h (0 Bft) NW 315 6,4 C 8,8 C
23.03.2012 08:57 8,9 C 84 % 1030,3 hPa 0,0 l/m 4,0 km/h (1 Bft) W 270 6,3 C 8,9 C
23.03.2012 09:02 9,1 C 84 % 1030,2 hPa 0,0 l/m 3,2 km/h (1 Bft) W 270 6,5 C 9,1 C
23.03.2012 09:07 9,2 C 84 % 1030,2 hPa 0,0 l/m 4,3 km/h (1 Bft) W-NW 292 6,6 C 9,2 C
23.03.2012 09:12 9,4 C 84 % 1030,3 hPa 0,0 l/m 0,0 km/h (0 Bft) W-NW 292 6,8 C 9,4 C
23.03.2012 09:17 9,6 C 83 % 1030,1 hPa 0,0 l/m 1,4 km/h (1 Bft) W 270 6,9 C 9,6 C
23.03.2012 09:22 9,8 C 83 % 1030,2 hPa 0,0 l/m 4,7 km/h (1 Bft) W 270 7,1 C 9,6 C
23.03.2012 09:27 9,9 C 82 % 1030,2 hPa 0,0 l/m 4,0 km/h (1 Bft) NO 45 7,0 C 9,9 C
23.03.2012 09:32 10,1 C 82 % 1030,1 hPa 0,0 l/m 6,8 km/h (2 Bft) NW 315 7,2 C 10,1 C
23.03.2012 09:37 10,3 C 81 % 1030,1 hPa 0,0 l/m 2,2 km/h (1 Bft) N-NO 22 7,2 C 10,3 C
23.03.2012 09:42 10,4 C 80 % 1030,2 hPa 0,0 l/m 2,5 km/h (1 Bft) N-NO 22 7,1 C 10,4 C
23.03.2012 09:47 10,5 C 80 % 1030,1 hPa 0,0 l/m 9,4 km/h (2 Bft) N 360 7,2 C 10,5 C
23.03.2012 09:52 10,7 C 79 % 1030,2 hPa 0,0 l/m 3,2 km/h (1 Bft) O-NO 67 7,2 C 10,7 C
23.03.2012 09:57 10,9 C 79 % 1030,2 hPa 0,0 l/m 0,0 km/h (0 Bft) W-NW 292 7,4 C 10,9 C
23.03.2012 10:02 11,1 C 79 % 1030,1 hPa 0,0 l/m 3,6 km/h (1 Bft) O-NO 67 7,6 C 11,1 C
23.03.2012 10:07 11,3 C 79 % 1030,1 hPa 0,0 l/m 3,6 km/h (1 Bft) NO 45 7,8 C 11,3 C
23.03.2012 10:12 11,4 C 78 % 1030,1 hPa 0,0 l/m 4,7 km/h (1 Bft) N-NO 22 7,7 C 11,4 C
23.03.2012 10:17 11,5 C 78 % 1030,1 hPa 0,0 l/m 7,6 km/h (2 Bft) W-NW 292 7,8 C 11,5 C
23.03.2012 10:22 11,8 C 78 % 1030,1 hPa 0,0 l/m 0,0 km/h (0 Bft) N-NW 337 8,1 C 11,8 C
23.03.2012 10:27 11,9 C 77 % 1030,1 hPa 0,0 l/m 1,8 km/h (1 Bft) N 360 8,0 C 11,9 C
23.03.2012 10:32 12,1 C 77 % 1030,1 hPa 0,0 l/m 0,0 km/h (0 Bft) N-NW 337 8,2 C 12,1 C
23.03.2012 10:37 12,3 C 76 % 1030,1 hPa 0,0 l/m 3,2 km/h (1 Bft) N-NO 22 8,2 C 12,3 C
23.03.2012 10:42 12,4 C 76 % 1030,0 hPa 0,0 l/m 2,5 km/h (1 Bft) NW 315 8,3 C 12,4 C
23.03.2012 10:47 12,5 C 75 % 1030,1 hPa 0,0 l/m 0,0 km/h (0 Bft) N-NW 337 8,2 C 12,5 C
23.03.2012 10:52 12,8 C 75 % 1030,0 hPa 0,0 l/m 4,7 km/h (1 Bft) N-NO 22 8,5 C 12,8 C
23.03.2012 10:57 12,9 C 75 % 1029,9 hPa 0,0 l/m 2,2 km/h (1 Bft) N-NW 337 8,6 C 12,9 C
23.03.2012 11:02 13,1 C 74 % 1030,0 hPa 0,0 l/m 9,7 km/h (2 Bft) NO 45 8,6 C 13,1 C
23.03.2012 11:07 13,2 C 73 % 1029,9 hPa 0,0 l/m 5,0 km/h (1 Bft) N 360 8,5 C 13,2 C
23.03.2012 11:12 13,3 C 73 % 1029,9 hPa 0,0 l/m 5,8 km/h (2 Bft) NO 45 8,6 C 13,3 C
23.03.2012 11:17 13,5 C 73 % 1029,9 hPa 0,0 l/m 2,2 km/h (1 Bft) NO 45 8,8 C 13,5 C
23.03.2012 11:22 13,6 C 72 % 1029,8 hPa 0,0 l/m 2,5 km/h (1 Bft) W-NW 292 8,6 C 13,6 C
23.03.2012 11:27 13,8 C 72 % 1029,9 hPa 0,0 l/m 0,0 km/h (0 Bft) N 360 8,8 C 13,8 C
23.03.2012 11:32 13,9 C 71 % 1029,8 hPa 0,0 l/m 2,5 km/h (1 Bft) W-NW 292 8,7 C 13,9 C
23.03.2012 11:37 13,9 C 71 % 1029,7 hPa 0,0 l/m 6,1 km/h (2 Bft) W-NW 292 8,7 C 13,9 C
23.03.2012 11:42 14,1 C 71 % 1029,8 hPa 0,0 l/m 3,2 km/h (1 Bft) W 270 8,9 C 14,1 C
23.03.2012 11:47 14,2 C 71 % 1029,7 hPa 0,0 l/m 8,6 km/h (2 Bft) W-NW 292 9,0 C 14,2 C
23.03.2012 11:52 14,3 C 71 % 1029,7 hPa 0,0 l/m 5,0 km/h (1 Bft) W-NW 292 9,1 C 14,3 C
23.03.2012 11:57 14,4 C 70 % 1029,7 hPa 0,0 l/m 2,9 km/h (1 Bft) W 270 9,0 C 14,4 C
23.03.2012 12:02 14,6 C 70 % 1029,6 hPa 0,0 l/m 5,4 km/h (1 Bft) W-NW 292 9,2 C 14,6 C
23.03.2012 12:07 14,7 C 70 % 1029,4 hPa 0,0 l/m 1,4 km/h (1 Bft) NO 45 9,3 C 14,7 C
23.03.2012 12:12 14,9 C 70 % 1029,4 hPa 0,0 l/m 5,0 km/h (1 Bft) W 270 9,5 C 14,9 C
23.03.2012 12:17 14,9 C 69 % 1029,4 hPa 0,0 l/m 5,4 km/h (1 Bft) NW 315 9,3 C 14,9 C
23.03.2012 12:22 14,9 C 69 % 1029,4 hPa 0,0 l/m 5,4 km/h (1 Bft) W-NW 292 9,3 C 14,9 C
23.03.2012 12:27 15,0 C 69 % 1029,4 hPa 0,0 l/m 5,0 km/h (1 Bft) W 270 9,4 C 15,0 C
23.03.2012 12:32 15,2 C 69 % 1029,4 hPa 0,0 l/m 6,1 km/h (2 Bft) W-NW 292 9,6 C 15,2 C
23.03.2012 12:37 15,4 C 68 % 1029,3 hPa 0,0 l/m 2,5 km/h (1 Bft) W-NW 292 9,5 C 15,4 C
23.03.2012 12:42 15,6 C 68 % 1029,5 hPa 0,0 l/m 2,5 km/h (1 Bft) N 360 9,7 C 15,6 C
23.03.2012 12:47 15,8 C 67 % 1029,2 hPa 0,0 l/m 4,0 km/h (1 Bft) N-NW 337 9,7 C 15,8 C
23.03.2012 12:52 15,9 C 66 % 1029,3 hPa 0,0 l/m 0,0 km/h (0 Bft) S-SO 157 9,6 C 15,9 C
23.03.2012 12:57 16,1 C 65 % 1029,4 hPa 0,0 l/m 7,6 km/h (2 Bft) NO 45 9,5 C 16,1 C
23.03.2012 13:02 16,1 C 64 % 1029,4 hPa 0,0 l/m 0,0 km/h (0 Bft) NO 45 9,3 C 16,1 C
23.03.2012 13:07 16,3 C 63 % 1029,3 hPa 0,0 l/m 6,5 km/h (2 Bft) N-NO 22 9,2 C 16,3 C
23.03.2012 13:12 16,2 C 64 % 1029,1 hPa 0,0 l/m 0,0 km/h (0 Bft) O 90 9,4 C 16,2 C
23.03.2012 13:17 16,4 C 64 % 1029,0 hPa 0,0 l/m 9,0 km/h (2 Bft) N 360 9,6 C 16,4 C
23.03.2012 13:22 16,6 C 64 % 1029,1 hPa 0,0 l/m 5,8 km/h (2 Bft) NW 315 9,8 C 16,6 C
23.03.2012 13:27 16,8 C 63 % 1028,8 hPa 0,0 l/m 4,3 km/h (1 Bft) W-NW 292 9,7 C 16,8 C
23.03.2012 13:32 16,9 C 62 % 1028,9 hPa 0,0 l/m 3,6 km/h (1 Bft) N-NO 22 9,6 C 16,9 C
23.03.2012 13:37 16,8 C 62 % 1028,9 hPa 0,0 l/m 4,0 km/h (1 Bft) W-NW 292 9,5 C 16,8 C
23.03.2012 13:42 16,9 C 62 % 1028,9 hPa 0,0 l/m 3,6 km/h (1 Bft) W-NW 292 9,6 C 16,9 C
23.03.2012 13:47 17,2 C 62 % 1028,7 hPa 0,0 l/m 6,1 km/h (2 Bft) O 90 9,9 C 17,2 C
23.03.2012 13:52 17,2 C 59 % 1028,7 hPa 0,0 l/m 2,9 km/h (1 Bft) O 90 9,1 C 17,2 C
23.03.2012 13:57 17,2 C 59 % 1028,8 hPa 0,0 l/m 6,1 km/h (2 Bft) O 90 9,1 C 17,2 C
23.03.2012 14:02 17,2 C 59 % 1028,7 hPa 0,0 l/m 4,0 km/h (1 Bft) O 90 9,1 C 17,2 C
23.03.2012 14:07 17,3 C 58 % 1028,6 hPa 0,0 l/m 2,5 km/h (1 Bft) W-NW 292 9,0 C 17,3 C
23.03.2012 14:12 17,6 C 59 % 1028,6 hPa 0,0 l/m 1,1 km/h (1 Bft) S-SW 202 9,5 C 17,6 C
23.03.2012 14:17 17,6 C 58 % 1028,6 hPa 0,0 l/m 0,0 km/h (0 Bft) N 360 9,2 C 17,6 C
23.03.2012 14:22 17,6 C 57 % 1028,7 hPa 0,0 l/m 8,3 km/h (2 Bft) N 360 9,0 C 17,6 C
23.03.2012 14:27 17,8 C 57 % 1028,6 hPa 0,0 l/m 7,6 km/h (2 Bft) O-NO 67 9,2 C 17,8 C
23.03.2012 14:32 17,8 C 57 % 1028,6 hPa 0,0 l/m 4,0 km/h (1 Bft) O-SO 112 9,2 C 17,8 C
23.03.2012 14:37 17,7 C 57 % 1028,6 hPa 0,0 l/m 6,5 km/h (2 Bft) N-NO 22 9,1 C 17,7 C
23.03.2012 14:42 17,6 C 56 % 1028,6 hPa 0,0 l/m 5,4 km/h (1 Bft) NO 45 8,7 C 17,6 C
23.03.2012 14:47 17,6 C 57 % 1028,5 hPa 0,0 l/m 1,4 km/h (1 Bft) O-NO 67 9,0 C 17,6 C
23.03.2012 14:52 17,6 C 57 % 1028,5 hPa 0,0 l/m 4,7 km/h (1 Bft) O-SO 112 9,0 C 17,6 C
23.03.2012 14:57 17,8 C 57 % 1028,4 hPa 0,0 l/m 0,0 km/h (0 Bft) S-SO 157 9,2 C 17,8 C
23.03.2012 15:02 17,9 C 57 % 1028,4 hPa 0,0 l/m 6,1 km/h (2 Bft) N-NO 22 9,3 C 17,9 C
23.03.2012 15:07 18,1 C 56 % 1028,4 hPa 0,0 l/m 4,3 km/h (1 Bft) W-NW 292 9,2 C 18,1 C
23.03.2012 15:12 18,1 C 56 % 1028,0 hPa 0,0 l/m 4,0 km/h (1 Bft) N-NO 22 9,2 C 18,1 C
23.03.2012 15:17 17,9 C 56 % 1028,1 hPa 0,0 l/m 0,0 km/h (0 Bft) NO 45 9,0 C 17,9 C
23.03.2012 15:22 17,9 C 56 % 1028,0 hPa 0,0 l/m 2,9 km/h (1 Bft) O-NO 67 9,0 C 17,9 C
23.03.2012 15:27 17,9 C 57 % 1028,0 hPa 0,0 l/m 6,1 km/h (2 Bft) N-NO 22 9,3 C 17,9 C
23.03.2012 15:32 18,1 C 56 % 1028,0 hPa 0,0 l/m 4,7 km/h (1 Bft) N 360 9,2 C 18,1 C
23.03.2012 15:37 18,1 C 56 % 1028,0 hPa 0,0 l/m 7,6 km/h (2 Bft) O-SO 112 9,2 C 18,1 C
23.03.2012 15:42 18,1 C 56 % 1028,0 hPa 0,0 l/m 4,3 km/h (1 Bft) O-SO 112 9,2 C 18,1 C
23.03.2012 15:47 17,9 C 56 % 1028,0 hPa 0,0 l/m 4,0 km/h (1 Bft) O 90 9,0 C 17,9 C
23.03.2012 15:52 18,0 C 56 % 1027,9 hPa 0,0 l/m 7,2 km/h (2 Bft) O-NO 67 9,1 C 18,0 C
23.03.2012 15:57 18,1 C 56 % 1027,9 hPa 0,0 l/m 0,0 km/h (0 Bft) N-NO 22 9,2 C 18,1 C
23.03.2012 16:02 18,1 C 56 % 1027,9 hPa 0,0 l/m 1,8 km/h (1 Bft) N-NO 22 9,2 C 18,1 C
23.03.2012 16:07 18,0 C 56 % 1027,7 hPa 0,0 l/m 2,5 km/h (1 Bft) O-NO 67 9,1 C 18,0 C
23.03.2012 16:12 18,1 C 56 % 1027,7 hPa 0,0 l/m 4,0 km/h (1 Bft) NO 45 9,2 C 18,1 C
23.03.2012 16:17 18,2 C 56 % 1027,6 hPa 0,0 l/m 2,5 km/h (1 Bft) NW 315 9,3 C 18,2 C
23.03.2012 16:22 18,1 C 56 % 1027,8 hPa 0,0 l/m 5,8 km/h (2 Bft) NO 45 9,2 C 18,1 C
23.03.2012 16:27 17,9 C 56 % 1027,7 hPa 0,0 l/m 7,2 km/h (2 Bft) NO 45 9,0 C 17,9 C
23.03.2012 16:32 17,8 C 57 % 1027,7 hPa 0,0 l/m 0,0 km/h (0 Bft) W 270 9,2 C 17,8 C
23.03.2012 16:37 17,8 C 57 % 1027,6 hPa 0,0 l/m 0,0 km/h (0 Bft) O-NO 67 9,2 C 17,8 C
23.03.2012 16:42 17,8 C 57 % 1027,6 hPa 0,0 l/m 2,5 km/h (1 Bft) N-NO 22 9,2 C 17,8 C
23.03.2012 16:47 17,6 C 56 % 1027,5 hPa 0,0 l/m 6,1 km/h (2 Bft) N-NO 22 8,7 C 17,6 C
23.03.2012 16:52 17,5 C 56 % 1027,6 hPa 0,0 l/m 2,5 km/h (1 Bft) O-NO 67 8,6 C 17,5 C
23.03.2012 16:57 17,4 C 56 % 1027,5 hPa 0,0 l/m 3,6 km/h (1 Bft) N-NO 22 8,5 C 17,4 C
23.03.2012 17:02 17,4 C 57 % 1027,4 hPa 0,0 l/m 0,0 km/h (0 Bft) O-NO 67 8,8 C 17,4 C
23.03.2012 17:07 17,3 C 57 % 1027,3 hPa 0,0 l/m 3,6 km/h (1 Bft) NO 45 8,7 C 17,3 C
23.03.2012 17:12 17,3 C 57 % 1027,4 hPa 0,0 l/m 5,8 km/h (2 Bft) N 360 8,7 C 17,3 C
23.03.2012 17:17 17,3 C 57 % 1027,4 hPa 0,0 l/m 2,5 km/h (1 Bft) N-NO 22 8,7 C 17,3 C
23.03.2012 17:22 17,2 C 57 % 1027,4 hPa 0,0 l/m 4,0 km/h (1 Bft) NO 45 8,6 C 17,2 C
23.03.2012 17:27 17,2 C 57 % 1027,2 hPa 0,0 l/m 6,1 km/h (2 Bft) N-NO 22 8,6 C 17,2 C
23.03.2012 17:32 17,1 C 57 % 1027,3 hPa 0,0 l/m 7,6 km/h (2 Bft) N-NO 22 8,5 C 17,1 C
23.03.2012 17:37 16,9 C 58 % 1027,5 hPa 0,0 l/m 3,6 km/h (1 Bft) N-NO 22 8,6 C 16,9 C
23.03.2012 17:42 16,8 C 58 % 1027,3 hPa 0,0 l/m 4,3 km/h (1 Bft) N-NO 22 8,5 C 16,8 C
23.03.2012 17:47 16,7 C 58 % 1027,3 hPa 0,0 l/m 3,2 km/h (1 Bft) N-NO 22 8,4 C 16,7 C
23.03.2012 17:52 16,5 C 58 % 1027,3 hPa 0,0 l/m 5,8 km/h (2 Bft) N-NO 22 8,2 C 16,5 C
23.03.2012 17:57 16,4 C 58 % 1027,3 hPa 0,0 l/m 2,2 km/h (1 Bft) N-NO 22 8,1 C 16,4 C
23.03.2012 18:02 16,3 C 58 % 1027,3 hPa 0,0 l/m 4,0 km/h (1 Bft) N-NO 22 8,0 C 16,3 C
23.03.2012 18:07 16,2 C 59 % 1027,4 hPa 0,0 l/m 3,2 km/h (1 Bft) N-NO 22 8,2 C 16,2 C
23.03.2012 18:12 16,1 C 59 % 1027,4 hPa 0,0 l/m 0,0 km/h (0 Bft) NO 45 8,1 C 16,1 C
23.03.2012 18:17 15,9 C 60 % 1027,4 hPa 0,0 l/m 2,5 km/h (1 Bft) NO 45 8,1 C 15,9 C
23.03.2012 18:22 15,8 C 60 % 1027,5 hPa 0,0 l/m 2,2 km/h (1 Bft) NO 45 8,1 C 15,8 C
23.03.2012 18:27 15,6 C 60 % 1027,3 hPa 0,0 l/m 2,5 km/h (1 Bft) NO 45 7,9 C 15,6 C
23.03.2012 18:32 15,4 C 61 % 1027,3 hPa 0,0 l/m 2,2 km/h (1 Bft) NO 45 7,9 C 15,4 C
23.03.2012 18:37 15,3 C 61 % 1027,3 hPa 0,0 l/m 0,0 km/h (0 Bft) NO 45 7,8 C 15,3 C
23.03.2012 18:42 15,0 C 62 % 1027,4 hPa 0,0 l/m 1,4 km/h (1 Bft) N-NO 22 7,8 C 15,0 C
23.03.2012 18:47 14,9 C 62 % 1027,4 hPa 0,0 l/m 0,0 km/h (0 Bft) N-NO 22 7,7 C 14,9 C
23.03.2012 18:52 14,9 C 62 % 1027,4 hPa 0,0 l/m 1,4 km/h (1 Bft) N-NO 22 7,7 C 14,9 C
23.03.2012 18:57 14,7 C 63 % 1027,6 hPa 0,0 l/m 0,0 km/h (0 Bft) N-NO 22 7,7 C 14,7 C
23.03.2012 19:02 14,6 C 63 % 1027,3 hPa 0,0 l/m 0,0 km/h (0 Bft) N-NO 22 7,6 C 14,6 C
23.03.2012 19:07 14,4 C 64 % 1027,4 hPa 0,0 l/m 0,0 km/h (0 Bft) N-NO 22 7,7 C 14,4 C
23.03.2012 19:12 14,3 C 64 % 1027,6 hPa 0,0 l/m 1,1 km/h (1 Bft) NO 45 7,6 C 14,3 C
23.03.2012 19:17 14,2 C 64 % 1027,6 hPa 0,0 l/m 1,4 km/h (1 Bft) N-NO 22 7,5 C 14,2 C
23.03.2012 19:22 14,1 C 64 % 1027,6 hPa 0,0 l/m 0,0 km/h (0 Bft) N-NO 22 7,4 C 14,1 C
23.03.2012 19:27 13,9 C 64 % 1027,7 hPa 0,0 l/m 0,0 km/h (0 Bft) NO 45 7,2 C 13,9 C
23.03.2012 19:32 13,8 C 65 % 1027,7 hPa 0,0 l/m 0,0 km/h (0 Bft) NO 45 7,3 C 13,8 C
23.03.2012 19:37 13,6 C 65 % 1027,6 hPa 0,0 l/m 0,0 km/h (0 Bft) N-NO 22 7,1 C 13,6 C
23.03.2012 19:42 13,5 C 66 % 1027,7 hPa 0,0 l/m 0,0 km/h (0 Bft) NO 45 7,3 C 13,5 C
23.03.2012 19:47 13,4 C 66 % 1027,8 hPa 0,0 l/m 0,0 km/h (0 Bft) N-NO 22 7,2 C 13,4 C
23.03.2012 19:52 13,3 C 66 % 1027,8 hPa 0,0 l/m 0,0 km/h (0 Bft) N-NO 22 7,1 C 13,3 C
23.03.2012 19:57 13,1 C 66 % 1027,9 hPa 0,0 l/m 0,0 km/h (0 Bft) N-NO 22 6,9 C 13,1 C
23.03.2012 20:02 13,0 C 68 % 1027,9 hPa 0,0 l/m 0,0 km/h (0 Bft) N-NO 22 7,2 C 13,0 C
23.03.2012 20:07 12,9 C 68 % 1027,9 hPa 0,0 l/m 0,0 km/h (0 Bft) N-NO 22 7,1 C 12,9 C
23.03.2012 20:12 12,9 C 68 % 1027,8 hPa 0,0 l/m 1,8 km/h (1 Bft) N-NO 22 7,1 C 12,9 C
23.03.2012 20:17 12,8 C 69 % 1027,9 hPa 0,0 l/m 0,0 km/h (0 Bft) NO 45 7,3 C 12,8 C
23.03.2012 20:22 12,6 C 69 % 1028,0 hPa 0,0 l/m 0,0 km/h (0 Bft) N-NO 22 7,1 C 12,6 C
23.03.2012 20:27 12,4 C 69 % 1028,0 hPa 0,0 l/m 0,0 km/h (0 Bft) N-NO 22 6,9 C 12,4 C
23.03.2012 20:32 12,4 C 69 % 1028,2 hPa 0,0 l/m 0,0 km/h (0 Bft) N-NO 22 6,9 C 12,4 C
23.03.2012 20:37 12,4 C 70 % 1028,0 hPa 0,0 l/m 0,0 km/h (0 Bft) N-NO 22 7,1 C 12,4 C
23.03.2012 20:42 12,3 C 70 % 1028,0 hPa 0,0 l/m 0,0 km/h (0 Bft) N-NO 22 7,0 C 12,3 C
23.03.2012 20:47 12,3 C 70 % 1028,0 hPa 0,0 l/m 0,0 km/h (0 Bft) N-NO 22 7,0 C 12,3 C
23.03.2012 20:52 12,3 C 71 % 1028,0 hPa 0,0 l/m 1,1 km/h (1 Bft) NW 315 7,2 C 12,3 C
23.03.2012 20:57 12,1 C 71 % 1028,1 hPa 0,0 l/m 0,0 km/h (0 Bft) NW 315 7,0 C 12,1 C
23.03.2012 21:02 11,9 C 71 % 1028,0 hPa 0,0 l/m 0,0 km/h (0 Bft) NW 315 6,8 C 11,9 C
23.03.2012 21:07 11,9 C 71 % 1028,1 hPa 0,0 l/m 0,0 km/h (0 Bft) NW 315 6,8 C 11,9 C
23.03.2012 21:12 11,8 C 72 % 1028,1 hPa 0,0 l/m 0,0 km/h (0 Bft) NW 315 6,9 C 11,8 C
23.03.2012 21:17 11,8 C 72 % 1028,1 hPa 0,0 l/m 0,0 km/h (0 Bft) NW 315 6,9 C 11,8 C
23.03.2012 21:22 11,6 C 73 % 1028,0 hPa 0,0 l/m 0,0 km/h (0 Bft) NW 315 6,9 C 11,6 C
23.03.2012 21:27 11,6 C 73 % 1028,0 hPa 0,0 l/m 0,0 km/h (0 Bft) NW 315 6,9 C 11,6 C
23.03.2012 21:32 11,5 C 73 % 1028,1 hPa 0,0 l/m 0,0 km/h (0 Bft) NW 315 6,8 C 11,5 C
23.03.2012 21:37 11,4 C 73 % 1028,1 hPa 0,0 l/m 0,0 km/h (0 Bft) NW 315 6,7 C 11,4 C
23.03.2012 21:42 11,3 C 73 % 1028,0 hPa 0,0 l/m 0,0 km/h (0 Bft) NW 315 6,6 C 11,3 C
23.03.2012 21:47 11,2 C 74 % 1028,1 hPa 0,0 l/m 0,0 km/h (0 Bft) NW 315 6,7 C 11,2 C
23.03.2012 21:52 10,9 C 74 % 1028,1 hPa 0,0 l/m 0,0 km/h (0 Bft) NW 315 6,5 C 10,9 C
23.03.2012 21:57 10,8 C 74 % 1028,0 hPa 0,0 l/m 0,0 km/h (0 Bft) NW 315 6,4 C 10,8 C
23.03.2012 22:02 10,8 C 75 % 1028,0 hPa 0,0 l/m 0,0 km/h (0 Bft) NW 315 6,5 C 10,8 C
23.03.2012 22:07 10,7 C 75 % 1028,1 hPa 0,0 l/m 0,0 km/h (0 Bft) NW 315 6,5 C 10,7 C
23.03.2012 22:12 10,6 C 75 % 1028,3 hPa 0,0 l/m 0,0 km/h (0 Bft) N-NW 337 6,4 C 10,6 C
23.03.2012 22:17 10,6 C 75 % 1028,2 hPa 0,0 l/m 0,0 km/h (0 Bft) N-NW 337 6,4 C 10,6 C
23.03.2012 22:22 10,5 C 75 % 1028,1 hPa 0,0 l/m 0,0 km/h (0 Bft) N-NW 337 6,3 C 10,5 C
23.03.2012 22:27 10,4 C 75 % 1028,0 hPa 0,0 l/m 0,0 km/h (0 Bft) N-NW 337 6,2 C 10,4 C
23.03.2012 22:32 10,4 C 75 % 1028,0 hPa 0,0 l/m 0,0 km/h (0 Bft) N-NW 337 6,2 C 10,4 C
23.03.2012 22:37 10,3 C 75 % 1028,1 hPa 0,0 l/m 0,0 km/h (0 Bft) N-NW 337 6,1 C 10,3 C
23.03.2012 22:42 10,2 C 75 % 1028,0 hPa 0,0 l/m 0,0 km/h (0 Bft) N-NW 337 6,0 C 10,2 C
23.03.2012 22:47 10,2 C 75 % 1028,3 hPa 0,0 l/m 0,0 km/h (0 Bft) NW 315 6,0 C 10,2 C
23.03.2012 22:52 10,3 C 75 % 1028,0 hPa 0,0 l/m 0,0 km/h (0 Bft) NW 315 6,1 C 10,3 C
23.03.2012 22:57 10,2 C 75 % 1028,1 hPa 0,0 l/m 0,0 km/h (0 Bft) N-NW 337 6,0 C 10,2 C
23.03.2012 23:02 10,1 C 76 % 1028,0 hPa 0,0 l/m 0,0 km/h (0 Bft) N-NW 337 6,1 C 10,1 C
23.03.2012 23:07 9,8 C 76 % 1028,0 hPa 0,0 l/m 0,0 km/h (0 Bft) N-NW 337 5,8 C 9,8 C
23.03.2012 23:12 9,6 C 77 % 1028,0 hPa 0,0 l/m 0,0 km/h (0 Bft) NW 315 5,8 C 9,6 C
23.03.2012 23:17 9,5 C 78 % 1028,0 hPa 0,0 l/m 0,0 km/h (0 Bft) NW 315 5,9 C 9,5 C
23.03.2012 23:22 9,4 C 79 % 1028,0 hPa 0,0 l/m 0,0 km/h (0 Bft) NW 315 5,9 C 9,4 C
23.03.2012 23:27 9,3 C 80 % 1028,0 hPa 0,0 l/m 0,0 km/h (0 Bft) NW 315 6,0 C 9,3 C
23.03.2012 23:32 9,4 C 80 % 1028,0 hPa 0,0 l/m 0,0 km/h (0 Bft) NW 315 6,1 C 9,4 C
23.03.2012 23:37 9,4 C 80 % 1027,9 hPa 0,0 l/m 0,0 km/h (0 Bft) NW 315 6,1 C 9,4 C
23.03.2012 23:42 9,4 C 80 % 1028,0 hPa 0,0 l/m 0,0 km/h (0 Bft) NW 315 6,1 C 9,4 C
23.03.2012 23:47 9,4 C 79 % 1028,1 hPa 0,0 l/m 0,0 km/h (0 Bft) NW 315 5,9 C 9,4 C
23.03.2012 23:52 9,4 C 80 % 1027,9 hPa 0,0 l/m 0,0 km/h (0 Bft) NW 315 6,1 C 9,4 C
23.03.2012 23:57 9,3 C 80 % 1028,0 hPa 0,0 l/m 0,0 km/h (0 Bft) NW 315 6,0 C 9,3 C
_ Min-Zeit 06:17 14:42 17:27 - 00:02 - - 06:17 06:17
Minimum _ 5,3 C 56 % 1027,2 hPa - 0,0 km/h (0 Bft) - - 2,7 C 5,3 C
_ Max-Zeit 16:17 07:17 00:02 00:02 11:02 - - 13:47 16:17
Maximum _ 18,2 C 86 % 1031,6 hPa 0,0 l/m 9,7 km/h
NO (2 Bft)
- - 9,9 C 18,2 C
Durchschnitt _ 11,4 C 73 % 1029,2 hPa #0,0 l/m 1,7 km/h (1 Bft) N-NO - 6,6 C 11,4 C
(c) by David Heller